createdAt,value
2023-04-03T00:05:17.295Z,-1.01
2023-04-03T00:10:39.998Z,-1.04
2023-04-03T00:16:03.320Z,-1.15
2023-04-03T00:21:27.916Z,-1.18
2023-04-03T00:26:50.261Z,-1.21
2023-04-03T00:32:12.486Z,-1.35
2023-04-03T00:37:34.717Z,-1.37
2023-04-03T00:43:00.786Z,-1.46
2023-04-03T00:48:28.708Z,-1.47
2023-04-03T00:54:05.585Z,-1.51
2023-04-03T00:59:31.905Z,-1.54
2023-04-03T01:04:56.941Z,-1.52
2023-04-03T01:10:23.088Z,-1.53
2023-04-03T01:15:46.615Z,-1.56
2023-04-03T01:21:46.744Z,-1.54
2023-04-03T01:27:12.320Z,-1.59
2023-04-03T01:32:34.793Z,-1.63
2023-04-03T01:37:57.300Z,-1.69
2023-04-03T01:43:19.668Z,-1.70
2023-04-03T01:48:41.918Z,-1.68
2023-04-03T01:54:04.683Z,-1.63
2023-04-03T01:59:27.343Z,-1.67
2023-04-03T02:04:49.568Z,-1.70
2023-04-03T02:10:12.105Z,-1.70
2023-04-03T02:15:34.411Z,-1.70
2023-04-03T02:20:56.755Z,-1.79
2023-04-03T02:26:25.237Z,-1.84
2023-04-03T02:31:47.893Z,-1.74
2023-04-03T02:37:10.162Z,-1.80
2023-04-03T02:42:32.878Z,-1.83
2023-04-03T02:47:55.673Z,-1.86
2023-04-03T02:53:17.964Z,-1.77
2023-04-03T02:58:40.592Z,-1.73
2023-04-03T03:04:02.969Z,-1.69
2023-04-03T03:09:27.328Z,-1.67
2023-04-03T03:14:49.671Z,-1.66
2023-04-03T03:20:12.651Z,-1.72
2023-04-03T03:25:35.283Z,-1.63
2023-04-03T03:30:57.963Z,-1.75
2023-04-03T03:36:21.047Z,-1.77
2023-04-03T03:41:43.324Z,-1.79
2023-04-03T03:47:07.354Z,-1.93
2023-04-03T03:52:31.432Z,-2.01
2023-04-03T03:57:53.667Z,-2.09
2023-04-03T04:03:16.483Z,-2.16
2023-04-03T04:08:39.068Z,-2.23
2023-04-03T04:14:01.355Z,-2.18
2023-04-03T04:19:23.674Z,-2.22
2023-04-03T04:24:45.985Z,-2.25
2023-04-03T04:30:08.211Z,-2.26
2023-04-03T04:35:30.646Z,-2.21
2023-04-03T04:40:53.164Z,-2.23
2023-04-03T04:46:26.298Z,-2.15
2023-04-03T04:51:52.331Z,-2.04
2023-04-03T04:57:12.845Z,-1.79
2023-04-03T05:02:35.209Z,-1.64
2023-04-03T05:07:57.694Z,-1.60
2023-04-03T05:13:20.107Z,-1.60
2023-04-03T05:18:42.391Z,-1.52
2023-04-03T05:24:04.748Z,-1.50
2023-04-03T05:29:28.201Z,-1.43
2023-04-03T05:34:50.532Z,-1.48
2023-04-03T05:40:14.294Z,-1.56
2023-04-03T05:45:36.639Z,-1.53
2023-04-03T05:50:59.673Z,-1.34
2023-04-03T05:56:22.250Z,-1.10
2023-04-03T06:01:44.570Z,-0.86
2023-04-03T06:07:09.764Z,-0.66
2023-04-03T06:12:32.587Z,-0.47
2023-04-03T06:17:54.854Z,-0.31
2023-04-03T06:23:17.940Z,-0.06
2023-04-03T06:28:40.535Z,0.10
2023-04-03T06:34:03.196Z,0.14
2023-04-03T06:39:30.899Z,0.15
2023-04-03T06:44:53.343Z,0.26
2023-04-03T06:50:16.997Z,0.21
2023-04-03T06:55:40.329Z,0.18
2023-04-03T07:01:02.901Z,0.29
2023-04-03T07:06:28.348Z,0.50
2023-04-03T07:11:51.289Z,0.77
2023-04-03T07:17:13.643Z,1.18
2023-04-03T07:22:36.302Z,1.33
2023-04-03T07:27:59.973Z,1.84
2023-04-03T07:33:23.297Z,1.90
2023-04-03T07:38:46.218Z,2.28
2023-04-03T07:44:10.352Z,2.60
2023-04-03T07:49:34.416Z,2.66
2023-04-03T07:54:56.849Z,2.48
2023-04-03T08:00:21.023Z,2.26
2023-04-03T08:05:47.187Z,2.35
2023-04-03T08:11:11.938Z,2.35
2023-04-03T08:16:38.806Z,2.29
2023-04-03T08:22:04.207Z,2.57
2023-04-03T08:27:28.354Z,2.43
2023-04-03T08:32:51.185Z,2.46
2023-04-03T08:38:13.812Z,2.54
2023-04-03T08:43:47.066Z,2.82
2023-04-03T08:49:12.045Z,2.75
2023-04-03T08:54:38.408Z,2.86
2023-04-03T09:00:00.962Z,2.79
2023-04-03T09:05:27.765Z,2.86
2023-04-03T09:10:53.367Z,3.20
2023-04-03T09:16:25.976Z,3.94
2023-04-03T09:21:51.456Z,3.81
2023-04-03T09:27:17.810Z,4.09
2023-04-03T09:32:48.873Z,4.37
2023-04-03T09:38:27.835Z,4.63
2023-04-03T09:43:54.015Z,5.00
2023-04-03T09:49:23.075Z,4.43
2023-04-03T09:54:49.040Z,3.16
2023-04-03T10:00:28.856Z,3.16
2023-04-03T10:05:56.611Z,3.28
2023-04-03T10:11:32.627Z,3.26
2023-04-03T10:17:04.836Z,4.15
2023-04-03T10:22:46.919Z,3.67
2023-04-03T10:28:34.600Z,4.08
2023-04-03T10:34:31.695Z,4.91
2023-04-03T10:40:13.934Z,3.90
2023-04-03T10:45:57.413Z,5.67
2023-04-03T10:51:39.872Z,4.87
2023-04-03T10:57:24.266Z,4.10
2023-04-03T11:03:02.650Z,4.58
2023-04-03T11:08:48.076Z,3.71
2023-04-03T11:14:39.213Z,4.06
2023-04-03T11:20:26.224Z,4.30
2023-04-03T11:25:51.304Z,5.84
2023-04-03T11:31:34.964Z,4.28
2023-04-03T11:37:05.522Z,5.62
2023-04-03T11:42:42.489Z,5.97
2023-04-03T11:48:23.297Z,5.57
2023-04-03T11:53:46.301Z,4.73
2023-04-03T11:59:30.620Z,4.59
2023-04-03T12:04:56.377Z,4.19
2023-04-03T12:10:32.106Z,6.05
2023-04-03T12:15:59.971Z,6.13
2023-04-03T12:21:39.049Z,4.96
2023-04-03T12:27:16.023Z,4.56
2023-04-03T12:33:14.707Z,6.09
2023-04-03T12:39:04.882Z,7.75
2023-04-03T12:44:47.206Z,5.39
2023-04-03T12:50:12.084Z,4.46
2023-04-03T12:55:36.253Z,6.16
2023-04-03T13:01:00.714Z,5.86
2023-04-03T13:06:50.215Z,6.27
2023-04-03T13:12:31.865Z,5.66
2023-04-03T13:17:56.099Z,5.43
2023-04-03T13:23:30.904Z,5.09
2023-04-03T13:28:54.913Z,4.80
2023-04-03T13:34:30.288Z,4.64
2023-04-03T13:39:56.170Z,6.17
2023-04-03T13:45:42.409Z,7.10
2023-04-03T13:51:18.173Z,5.40
2023-04-03T13:56:47.897Z,4.63
2023-04-03T14:02:21.713Z,4.73
2023-04-03T14:07:44.954Z,6.97
2023-04-03T14:13:07.457Z,6.78
2023-04-03T14:18:33.311Z,5.46
2023-04-03T14:23:55.883Z,5.47
2023-04-03T14:29:18.825Z,4.64
2023-04-03T14:34:44.352Z,3.90
2023-04-03T14:40:08.427Z,5.19
2023-04-03T14:45:32.231Z,5.83
2023-04-03T14:51:05.345Z,7.69
2023-04-03T14:56:25.467Z,7.34
2023-04-03T15:01:52.656Z,5.26
2023-04-03T15:07:16.408Z,6.59
2023-04-03T15:12:39.620Z,8.27
2023-04-03T15:18:07.035Z,6.46
2023-04-03T15:23:31.773Z,5.77
2023-04-03T15:28:56.501Z,7.25
2023-04-03T15:34:19.034Z,7.62
2023-04-03T15:39:41.634Z,5.83
2023-04-03T15:45:03.957Z,4.46
2023-04-03T15:50:26.777Z,4.00
2023-04-03T15:55:51.403Z,4.23
2023-04-03T16:01:13.964Z,4.38
2023-04-03T16:06:38.780Z,4.22
2023-04-03T16:12:01.781Z,5.48
2023-04-03T16:17:24.890Z,5.44
2023-04-03T16:22:49.834Z,5.71
2023-04-03T16:28:13.252Z,5.17
2023-04-03T16:33:36.534Z,4.09
2023-04-03T16:38:58.985Z,3.23
2023-04-03T16:44:23.025Z,2.61
2023-04-03T16:49:45.471Z,2.13
2023-04-03T16:55:07.815Z,1.95
2023-04-03T17:00:30.536Z,1.83
2023-04-03T17:05:55.755Z,1.69
2023-04-03T17:11:18.191Z,1.42
2023-04-03T17:16:41.656Z,1.31
2023-04-03T17:22:05.230Z,1.17
2023-04-03T17:27:27.728Z,1.16
2023-04-03T17:32:50.154Z,1.32
2023-04-03T17:38:12.470Z,1.42
2023-04-03T17:43:35.061Z,1.44
2023-04-03T17:49:02.680Z,1.30
2023-04-03T17:54:25.421Z,1.08
2023-04-03T17:59:47.747Z,0.82
2023-04-03T18:05:11.886Z,0.55
2023-04-03T18:10:35.015Z,0.27
2023-04-03T18:15:57.895Z,0.16
2023-04-03T18:21:22.573Z,0.30
2023-04-03T18:26:47.184Z,0.46
2023-04-03T18:32:11.537Z,0.56
2023-04-03T18:37:34.409Z,0.60
2023-04-03T18:42:58.053Z,0.63
2023-04-03T18:48:21.742Z,0.56
2023-04-03T18:53:44.350Z,0.56
2023-04-03T18:59:07.100Z,0.60
2023-04-03T19:04:30.162Z,0.67
2023-04-03T19:09:53.465Z,0.72
2023-04-03T19:15:16.254Z,0.77
2023-04-03T19:20:39.136Z,0.78
2023-04-03T19:26:07.685Z,0.80
2023-04-03T19:31:35.388Z,0.76
2023-04-03T19:36:57.794Z,0.80
2023-04-03T19:42:21.299Z,0.80
2023-04-03T19:47:45.334Z,0.87
2023-04-03T19:53:09.258Z,0.85
2023-04-03T19:58:32.303Z,0.76
2023-04-03T20:03:54.625Z,0.63
2023-04-03T20:09:18.578Z,0.59
2023-04-03T20:14:41.988Z,0.49
2023-04-03T20:20:04.756Z,0.45
2023-04-03T20:25:48.060Z,0.39
2023-04-03T20:30:54.748Z,0.38
2023-04-03T20:36:17.223Z,0.30
2023-04-03T20:41:39.727Z,0.18
2023-04-03T20:47:02.014Z,0.19
2023-04-03T20:52:24.353Z,0.19
2023-04-03T20:57:54.397Z,0.17
2023-04-03T21:03:12.857Z,0.18
2023-04-03T21:09:30.397Z,0.16
2023-04-03T21:15:48.202Z,0.09
2023-04-03T21:21:10.508Z,0.09
2023-04-03T21:26:34.288Z,-0.15
2023-04-03T21:32:11.284Z,-0.38
2023-04-03T21:37:34.096Z,-0.61
2023-04-03T21:42:58.625Z,-0.70
2023-04-03T21:48:21.979Z,-0.77
2023-04-03T21:53:46.095Z,-0.95
2023-04-03T21:59:08.577Z,-1.10
2023-04-03T22:04:31.089Z,-1.27
2023-04-03T22:09:53.788Z,-1.41
2023-04-03T22:15:16.897Z,-1.55
2023-04-03T22:20:39.314Z,-1.63
2023-04-03T22:26:22.036Z,-1.78
2023-04-03T22:31:44.300Z,-1.80
2023-04-03T22:37:06.749Z,-1.99
2023-04-03T22:42:30.282Z,-2.15
2023-04-03T22:47:53.218Z,-2.21
2023-04-03T22:53:15.966Z,-2.07
2023-04-03T22:58:38.261Z,-1.97
2023-04-03T23:04:01.182Z,-1.96
2023-04-03T23:09:23.615Z,-1.96
2023-04-03T23:14:45.988Z,-1.94
2023-04-03T23:20:08.242Z,-1.80
2023-04-03T23:25:31.278Z,-1.70
2023-04-03T23:30:54.472Z,-1.67
2023-04-03T23:36:21.365Z,-1.69
2023-04-03T23:41:44.548Z,-1.64
2023-04-03T23:47:06.954Z,-1.63
2023-04-03T23:52:30.846Z,-1.62
2023-04-03T23:57:55.832Z,-1.58
